Time;durP1;ratioP1;P1;durP2;ratioP2;P2;SDS_P1;SDS_P2;PMS_P1;PMS_P2;Temp;Humidity;BMP_temperature;BMP_pressure;BME280_temperature;BME280_humidity;BME280_pressure;Samples;Min_cycle;Max_cycle;Signal;HPM_P1;HPM_P2
2023/12/20 00:02:25;;;;;;;;;;;20.20;66.70;;;;;;7314735;19;9470;-70
2023/12/20 00:04:54;;;;;;;;;;;20.20;66.70;;;;;;7317199;19;9482;-70
2023/12/20 00:07:23;;;;;;;;;;;20.30;66.60;;;;;;7317057;19;9521;-70
2023/12/20 00:09:52;;;;;;;;;;;20.30;66.60;;;;;;7315453;19;10725;-70
2023/12/20 00:12:21;;;;;;;;;;;20.40;66.50;;;;;;7314927;19;9245;-70
2023/12/20 00:14:50;;;;;;;;;;;20.50;66.40;;;;;;7315472;19;9214;-70
2023/12/20 00:17:18;;;;;;;;;;;20.50;66.30;;;;;;7317153;19;9374;-70
2023/12/20 00:19:50;;;;;;;;;;;20.50;66.20;;;;;;7314125;19;9266;-70
2023/12/20 00:22:19;;;;;;;;;;;20.50;66.10;;;;;;7313680;19;9454;-70
2023/12/20 00:24:48;;;;;;;;;;;20.50;66.00;;;;;;7314748;19;9457;-70
2023/12/20 00:27:17;;;;;;;;;;;20.50;66.00;;;;;;7317135;19;9248;-70
2023/12/20 00:29:49;;;;;;;;;;;20.50;65.90;;;;;;7315201;19;9315;-70
2023/12/20 00:32:18;;;;;;;;;;;20.50;65.90;;;;;;7315095;19;10814;-70
2023/12/20 00:34:50;;;;;;;;;;;20.50;65.80;;;;;;7314323;19;9728;-70
2023/12/20 00:37:19;;;;;;;;;;;20.40;65.70;;;;;;7316737;19;9329;-70
2023/12/20 00:39:48;;;;;;;;;;;20.40;65.80;;;;;;7313496;19;9498;-70
2023/12/20 00:42:17;;;;;;;;;;;20.40;65.70;;;;;;7315524;19;10432;-70
2023/12/20 00:44:46;;;;;;;;;;;20.40;65.80;;;;;;7314371;19;9655;-70
2023/12/20 00:47:15;;;;;;;;;;;20.30;65.70;;;;;;7313651;19;9521;-70
2023/12/20 00:49:44;;;;;;;;;;;20.30;65.70;;;;;;7314109;19;9427;-70
2023/12/20 00:52:17;;;;;;;;;;;20.30;65.80;;;;;;7315930;19;9559;-70
2023/12/20 00:54:46;;;;;;;;;;;20.20;65.80;;;;;;7315043;19;9625;-71
2023/12/20 00:57:15;;;;;;;;;;;20.10;65.80;;;;;;7314017;19;9635;-70
2023/12/20 00:59:44;;;;;;;;;;;20.10;65.80;;;;;;7313807;19;9320;-71
2023/12/20 01:02:13;;;;;;;;;;;20.10;65.90;;;;;;7315495;19;9710;-71
2023/12/20 01:04:42;;;;;;;;;;;20.00;66.00;;;;;;7311953;19;10586;-71
2023/12/20 01:07:11;;;;;;;;;;;20.00;66.00;;;;;;7315119;19;9617;-71
2023/12/20 01:10:03;;;;;;;;;;;19.90;66.00;;;;;;7312293;19;9298;-70
2023/12/20 01:12:32;;;;;;;;;;;19.90;66.00;;;;;;7314320;19;9253;-70
2023/12/20 01:15:01;;;;;;;;;;;19.80;66.10;;;;;;7310493;19;9461;-70
2023/12/20 01:17:30;;;;;;;;;;;19.80;66.10;;;;;;7292459;19;9443;-70
2023/12/20 01:20:01;;;;;;;;;;;19.70;66.20;;;;;;7297287;19;10743;-70
2023/12/20 01:22:30;;;;;;;;;;;19.70;66.20;;;;;;7314110;19;9457;-70
2023/12/20 01:25:02;;;;;;;;;;;19.70;66.30;;;;;;7314181;19;10086;-70
2023/12/20 01:27:32;;;;;;;;;;;19.70;66.20;;;;;;7313100;19;9238;-70
2023/12/20 01:30:01;;;;;;;;;;;19.70;66.20;;;;;;7304452;19;9137;-70
2023/12/20 01:32:30;;;;;;;;;;;19.70;66.20;;;;;;7285424;19;9732;-70
2023/12/20 01:34:59;;;;;;;;;;;19.70;66.10;;;;;;7302482;19;9482;-70
2023/12/20 01:37:29;;;;;;;;;;;19.80;66.10;;;;;;7302959;19;9627;-70
2023/12/20 01:40:03;;;;;;;;;;;19.80;66.10;;;;;;7303515;19;9590;-70
2023/12/20 01:42:35;;;;;;;;;;;19.90;66.00;;;;;;7300443;19;10429;-70
2023/12/20 01:45:05;;;;;;;;;;;19.90;66.00;;;;;;7302895;19;9562;-70
2023/12/20 01:47:55;;;;;;;;;;;20.00;66.00;;;;;;7303024;19;9505;-70
2023/12/20 01:50:25;;;;;;;;;;;20.00;65.80;;;;;;7303175;19;9272;-70
2023/12/20 01:52:57;;;;;;;;;;;20.10;65.90;;;;;;7304700;19;9272;-70
2023/12/20 01:55:33;;;;;;;;;;;20.10;65.80;;;;;;7306041;19;10570;-70
2023/12/20 01:58:03;;;;;;;;;;;20.20;65.70;;;;;;7304649;19;9364;-70
2023/12/20 02:00:34;;;;;;;;;;;20.20;65.70;;;;;;7313516;19;9534;-70
2023/12/20 02:03:04;;;;;;;;;;;20.30;65.70;;;;;;7312633;19;9503;-70
2023/12/20 02:05:35;;;;;;;;;;;20.30;65.60;;;;;;7310941;19;9413;-70
2023/12/20 02:08:04;;;;;;;;;;;20.40;65.60;;;;;;7310017;19;9406;-70
2023/12/20 02:10:36;;;;;;;;;;;20.40;65.50;;;;;;7314738;19;9288;-71
2023/12/20 02:13:07;;;;;;;;;;;20.40;65.40;;;;;;7313497;19;9449;-71
2023/12/20 02:15:36;;;;;;;;;;;20.50;65.30;;;;;;7314101;19;9673;-70
2023/12/20 02:18:25;;;;;;;;;;;20.50;65.30;;;;;;7311366;19;9579;-71
2023/12/20 02:20:55;;;;;;;;;;;20.50;65.20;;;;;;7311901;19;10598;-71
2023/12/20 02:23:27;;;;;;;;;;;20.50;65.10;;;;;;7311252;19;9439;-71
2023/12/20 02:25:56;;;;;;;;;;;20.50;65.10;;;;;;7314882;19;10421;-72
2023/12/20 02:28:25;;;;;;;;;;;20.50;65.00;;;;;;7319472;19;9273;-71
2023/12/20 02:30:54;;;;;;;;;;;20.50;65.60;;;;;;7320819;19;9189;-71
2023/12/20 02:33:23;;;;;;;;;;;20.40;64.80;;;;;;7313597;19;9445;-71
2023/12/20 02:36:12;;;;;;;;;;;20.40;64.70;;;;;;7317502;19;9230;-71
2023/12/20 02:38:43;;;;;;;;;;;20.40;64.70;;;;;;7319126;19;9558;-71
2023/12/20 02:41:15;;;;;;;;;;;20.40;64.70;;;;;;7321697;19;9412;-72
2023/12/20 02:43:44;;;;;;;;;;;20.30;64.60;;;;;;7318020;19;9196;-71
2023/12/20 02:46:16;;;;;;;;;;;20.30;64.60;;;;;;7320702;19;9442;-71
2023/12/20 02:48:47;;;;;;;;;;;20.20;64.60;;;;;;7318073;19;9488;-71
2023/12/20 02:51:16;;;;;;;;;;;20.20;64.60;;;;;;7320625;19;9295;-71
2023/12/20 02:54:07;;;;;;;;;;;20.10;64.60;;;;;;7315898;19;9669;-71
2023/12/20 02:56:37;;;;;;;;;;;20.10;64.80;;;;;;7320344;19;10136;-71
2023/12/20 02:59:08;;;;;;;;;;;20.10;64.80;;;;;;7317616;19;9473;-71
2023/12/20 03:01:38;;;;;;;;;;;20.00;64.80;;;;;;7319353;19;9220;-70
2023/12/20 03:04:07;;;;;;;;;;;19.90;64.80;;;;;;7319344;19;10632;-70
2023/12/20 03:06:36;;;;;;;;;;;19.90;64.80;;;;;;7317580;19;9473;-71
2023/12/20 03:09:07;;;;;;;;;;;19.90;64.90;;;;;;7318260;19;9218;-70
2023/12/20 03:11:36;;;;;;;;;;;19.80;64.90;;;;;;7319204;19;10876;-70
2023/12/20 03:14:05;;;;;;;;;;;19.80;65.00;;;;;;7317355;19;9681;-70
2023/12/20 03:16:54;;;;;;;;;;;19.80;65.00;;;;;;7316725;19;9309;-71
2023/12/20 03:19:23;;;;;;;;;;;19.80;65.00;;;;;;7317897;19;10688;-70
2023/12/20 03:21:53;;;;;;;;;;;19.80;65.00;;;;;;7318040;19;9349;-71
2023/12/20 03:24:25;;;;;;;;;;;19.70;65.00;;;;;;7319820;19;9471;-71
2023/12/20 03:26:53;;;;;;;;;;;19.80;65.00;;;;;;7315839;19;9620;-71
2023/12/20 03:29:22;;;;;;;;;;;19.80;65.00;;;;;;7316707;19;9433;-71
2023/12/20 03:31:51;;;;;;;;;;;19.80;65.00;;;;;;7316953;19;9303;-70
2023/12/20 03:34:20;;;;;;;;;;;19.90;65.10;;;;;;7317729;19;9489;-70
2023/12/20 03:36:49;;;;;;;;;;;19.90;65.00;;;;;;7316676;19;11003;-70
2023/12/20 03:39:18;;;;;;;;;;;20.00;65.00;;;;;;7317522;19;9233;-70
2023/12/20 03:41:50;;;;;;;;;;;20.00;64.90;;;;;;7314365;19;9602;-71
2023/12/20 03:44:20;;;;;;;;;;;20.10;64.80;;;;;;7314290;19;9570;-71
2023/12/20 03:46:49;;;;;;;;;;;20.10;64.80;;;;;;7315548;19;9363;-71
2023/12/20 03:49:18;;;;;;;;;;;20.20;64.80;;;;;;7317184;19;9471;-70
2023/12/20 03:51:47;;;;;;;;;;;20.20;64.70;;;;;;7315242;19;9468;-70
2023/12/20 03:54:16;;;;;;;;;;;20.30;64.80;;;;;;7318511;19;9545;-71
2023/12/20 03:56:44;;;;;;;;;;;20.30;64.50;;;;;;7317393;19;9324;-71
2023/12/20 03:59:16;;;;;;;;;;;20.30;65.10;;;;;;7316877;19;9290;-72
2023/12/20 04:01:46;;;;;;;;;;;20.30;64.50;;;;;;7315140;19;9440;-71
2023/12/20 04:04:16;;;;;;;;;;;20.30;64.30;;;;;;7317932;19;9577;-71
2023/12/20 04:06:45;;;;;;;;;;;20.30;64.20;;;;;;7316301;19;9461;-71
2023/12/20 04:09:14;;;;;;;;;;;20.30;64.20;;;;;;7318240;19;9465;-71
2023/12/20 04:11:43;;;;;;;;;;;20.30;64.20;;;;;;7316296;19;10392;-71
2023/12/20 04:14:12;;;;;;;;;;;20.30;63.90;;;;;;7316810;19;9052;-71
2023/12/20 04:16:44;;;;;;;;;;;20.20;63.90;;;;;;7316368;19;9388;-71
2023/12/20 04:19:13;;;;;;;;;;;20.20;63.90;;;;;;7317152;19;9562;-71
2023/12/20 04:21:41;;;;;;;;;;;20.20;63.90;;;;;;7315362;19;9477;-72
2023/12/20 04:24:10;;;;;;;;;;;20.10;64.00;;;;;;7312471;19;9229;-71
2023/12/20 04:26:39;;;;;;;;;;;20.10;64.00;;;;;;7317272;19;9237;-71
2023/12/20 04:29:08;;;;;;;;;;;20.00;64.00;;;;;;7315127;19;9510;-71
2023/12/20 04:31:37;;;;;;;;;;;20.00;64.00;;;;;;7318367;19;9560;-71
2023/12/20 04:34:09;;;;;;;;;;;20.00;64.10;;;;;;7314726;19;9417;-71
2023/12/20 04:36:38;;;;;;;;;;;19.90;64.10;;;;;;7316523;19;9220;-71
2023/12/20 04:39:07;;;;;;;;;;;19.90;64.20;;;;;;7315671;19;9521;-70
2023/12/20 04:41:36;;;;;;;;;;;19.80;64.20;;;;;;7316169;19;9276;-71
2023/12/20 04:44:06;;;;;;;;;;;19.80;64.40;;;;;;7316650;19;9456;-70
2023/12/20 04:46:35;;;;;;;;;;;19.70;64.40;;;;;;7314763;19;9461;-71
2023/12/20 04:49:04;;;;;;;;;;;19.70;64.40;;;;;;7313743;19;9497;-71
2023/12/20 04:51:36;;;;;;;;;;;19.60;64.50;;;;;;7315575;19;9347;-71
2023/12/20 04:54:05;;;;;;;;;;;19.60;64.50;;;;;;7315471;19;9562;-71
2023/12/20 04:56:34;;;;;;;;;;;19.60;64.60;;;;;;7314685;19;9536;-71
2023/12/20 04:59:03;;;;;;;;;;;19.60;64.70;;;;;;7314539;19;9501;-71
2023/12/20 05:01:32;;;;;;;;;;;19.50;64.90;;;;;;7315466;19;9440;-70
2023/12/20 05:04:01;;;;;;;;;;;19.50;64.90;;;;;;7311759;19;9457;-70
2023/12/20 05:06:29;;;;;;;;;;;19.50;64.90;;;;;;7314945;19;9262;-70
2023/12/20 05:09:01;;;;;;;;;;;19.40;65.00;;;;;;7316853;19;9724;-71
2023/12/20 05:11:30;;;;;;;;;;;19.40;64.90;;;;;;7315091;19;9685;-71
2023/12/20 05:13:59;;;;;;;;;;;19.40;65.00;;;;;;7314074;19;9533;-71
2023/12/20 05:16:28;;;;;;;;;;;19.30;65.00;;;;;;7314565;19;9624;-70
2023/12/20 05:18:57;;;;;;;;;;;19.30;65.10;;;;;;7314926;19;9183;-71
2023/12/20 05:21:45;;;;;;;;;;;19.30;65.10;;;;;;7313213;19;9497;-71
2023/12/20 05:24:17;;;;;;;;;;;19.30;65.10;;;;;;7311624;19;10255;-70
2023/12/20 05:26:46;;;;;;;;;;;19.30;65.10;;;;;;7313755;19;9449;-71
2023/12/20 05:29:15;;;;;;;;;;;19.20;65.10;;;;;;7313850;19;9304;-71
2023/12/20 05:31:44;;;;;;;;;;;19.20;65.20;;;;;;7313689;19;9334;-71
2023/12/20 05:34:13;;;;;;;;;;;19.20;65.20;;;;;;7313536;19;10041;-71
2023/12/20 05:36:42;;;;;;;;;;;19.20;65.20;;;;;;7311944;19;9494;-70
2023/12/20 05:39:11;;;;;;;;;;;19.20;65.20;;;;;;7315488;19;9589;-71
2023/12/20 05:42:03;;;;;;;;;;;19.20;65.20;;;;;;7312048;19;9301;-71
2023/12/20 05:44:32;;;;;;;;;;;19.10;65.20;;;;;;7314848;19;9616;-71
2023/12/20 05:47:01;;;;;;;;;;;19.10;65.20;;;;;;7312166;19;9364;-71
2023/12/20 05:49:50;;;;;;;;;;;19.10;65.20;;;;;;7312257;19;10489;-71
2023/12/20 05:52:19;;;;;;;;;;;19.10;65.30;;;;;;7315283;19;9755;-70
2023/12/20 05:54:48;;;;;;;;;;;19.10;65.30;;;;;;7310914;19;9465;-71
2023/12/20 05:57:19;;;;;;;;;;;19.00;65.70;;;;;;7313094;19;9034;-71
2023/12/20 05:59:48;;;;;;;;;;;19.00;65.20;;;;;;7311171;19;9515;-71
2023/12/20 06:02:17;;;;;;;;;;;19.00;65.20;;;;;;7318412;19;9658;-71
2023/12/20 06:05:07;;;;;;;;;;;19.00;65.20;;;;;;7317344;19;9275;-71
2023/12/20 06:07:36;;;;;;;;;;;19.00;65.30;;;;;;7317953;19;9465;-71
2023/12/20 06:10:06;;;;;;;;;;;19.00;65.20;;;;;;7320495;19;10543;-71
2023/12/20 06:12:38;;;;;;;;;;;19.00;65.40;;;;;;7316945;19;10534;-70
2023/12/20 06:15:08;;;;;;;;;;;19.00;65.30;;;;;;7318033;19;9665;-71
2023/12/20 06:17:37;;;;;;;;;;;19.00;65.90;;;;;;7319932;19;9532;-71
2023/12/20 06:20:07;;;;;;;;;;;18.90;65.30;;;;;;7320167;19;10918;-71
2023/12/20 06:22:37;;;;;;;;;;;18.90;65.30;;;;;;7320408;19;9707;-71
2023/12/20 06:25:06;;;;;;;;;;;18.90;65.20;;;;;;7317656;19;9191;-72
2023/12/20 06:27:35;;;;;;;;;;;18.90;65.90;;;;;;7320207;19;10907;-71
2023/12/20 06:30:04;;;;;;;;;;;18.90;65.20;;;;;;7316349;19;9621;-71
2023/12/20 06:32:34;;;;;;;;;;;18.90;65.20;;;;;;7317090;19;9201;-71
2023/12/20 06:35:04;;;;;;;;;;;18.90;65.30;;;;;;7318568;19;9469;-71
2023/12/20 06:37:53;;;;;;;;;;;18.90;65.30;;;;;;7317432;19;9244;-71
2023/12/20 06:40:22;;;;;;;;;;;18.80;65.30;;;;;;7317493;19;9561;-71
2023/12/20 06:42:54;;;;;;;;;;;18.80;65.20;;;;;;7318271;19;9395;-70
2023/12/20 06:45:24;;;;;;;;;;;18.80;65.20;;;;;;7316193;19;9230;-71
2023/12/20 06:47:54;;;;;;;;;;;18.80;65.80;;;;;;7318959;19;9256;-71
2023/12/20 06:50:23;;;;;;;;;;;18.80;65.20;;;;;;7313893;19;9459;-71
2023/12/20 06:52:52;;;;;;;;;;;18.80;65.30;;;;;;7319000;19;9478;-63
2023/12/20 06:55:21;;;;;;;;;;;18.80;65.30;;;;;;7317921;19;9458;-68
2023/12/20 06:57:50;;;;;;;;;;;18.80;65.40;;;;;;7316703;19;10312;-69
2023/12/20 07:00:22;;;;;;;;;;;18.80;65.40;;;;;;7319643;19;9682;-68
2023/12/20 07:02:51;;;;;;;;;;;18.80;65.40;;;;;;7315406;19;12277;-69
2023/12/20 07:05:20;;;;;;;;;;;18.80;65.40;;;;;;7319112;19;9503;-69
2023/12/20 07:07:51;;;;;;;;;;;18.80;65.40;;;;;;7317095;19;9290;-70
2023/12/20 07:10:20;;;;;;;;;;;18.80;65.60;;;;;;7316455;19;9401;-67
2023/12/20 07:12:49;;;;;;;;;;;18.70;65.50;;;;;;7314390;19;9489;-64
2023/12/20 07:15:18;;;;;;;;;;;18.70;65.60;;;;;;7309366;19;9571;-63
2023/12/20 07:17:49;;;;;;;;;;;18.70;65.70;;;;;;7319052;19;9112;-63
2023/12/20 07:20:18;;;;;;;;;;;18.70;65.70;;;;;;7317142;19;10730;-63
2023/12/20 07:22:47;;;;;;;;;;;18.70;65.60;;;;;;7319980;19;9493;-64
2023/12/20 07:25:18;;;;;;;;;;;18.70;65.50;;;;;;7309493;19;9472;-64
2023/12/20 07:27:46;;;;;;;;;;;18.70;65.80;;;;;;7317094;19;9470;-64
2023/12/20 07:30:16;;;;;;;;;;;18.70;65.50;;;;;;7313804;19;10929;-64
2023/12/20 07:32:45;;;;;;;;;;;18.70;65.50;;;;;;7313718;19;11056;-64
2023/12/20 07:35:19;;;;;;;;;;;18.70;65.50;;;;;;7314034;19;10246;-64
2023/12/20 07:37:47;;;;;;;;;;;18.70;65.60;;;;;;7315619;19;9293;-64
2023/12/20 07:40:17;;;;;;;;;;;18.70;65.60;;;;;;7313908;19;9311;-65
2023/12/20 07:42:46;;;;;;;;;;;18.70;65.60;;;;;;7318989;19;9533;-64
2023/12/20 07:45:15;;;;;;;;;;;18.70;65.70;;;;;;7315432;19;9573;-65
2023/12/20 07:47:44;;;;;;;;;;;18.70;65.50;;;;;;7315184;19;9480;-64
2023/12/20 07:50:16;;;;;;;;;;;18.70;65.60;;;;;;7317473;19;9710;-64
2023/12/20 07:52:45;;;;;;;;;;;18.70;65.60;;;;;;7311771;19;9461;-64
2023/12/20 07:55:14;;;;;;;;;;;18.60;65.50;;;;;;7319267;19;9481;-64
2023/12/20 07:57:43;;;;;;;;;;;18.60;65.50;;;;;;7316213;19;9498;-64
2023/12/20 08:00:13;;;;;;;;;;;18.60;65.50;;;;;;7317417;19;9116;-65
2023/12/20 08:02:42;;;;;;;;;;;18.60;65.50;;;;;;7315960;19;10327;-64
2023/12/20 08:05:11;;;;;;;;;;;18.60;65.50;;;;;;7315702;19;11418;-64
2023/12/20 08:07:43;;;;;;;;;;;18.60;65.40;;;;;;7316988;19;9532;-64
2023/12/20 08:10:12;;;;;;;;;;;18.60;65.40;;;;;;7316408;19;9587;-64
2023/12/20 08:12:42;;;;;;;;;;;18.60;65.40;;;;;;7314578;19;9601;-64
2023/12/20 08:15:12;;;;;;;;;;;18.60;65.40;;;;;;7313668;19;11044;-64
2023/12/20 08:17:41;;;;;;;;;;;18.60;65.30;;;;;;7315599;19;9778;-64
2023/12/20 08:20:30;;;;;;;;;;;18.60;65.20;;;;;;7313402;19;9340;-64
2023/12/20 08:23:01;;;;;;;;;;;18.60;65.10;;;;;;7309185;19;9588;-64
2023/12/20 08:25:30;;;;;;;;;;;18.70;65.00;;;;;;7313641;19;10652;-65
2023/12/20 08:27:59;;;;;;;;;;;18.70;65.00;;;;;;7310922;19;9265;-64
2023/12/20 08:30:28;;;;;;;;;;;18.80;64.90;;;;;;7314425;19;9251;-64
2023/12/20 08:32:57;;;;;;;;;;;18.80;64.80;;;;;;7315591;19;9299;-65
2023/12/20 08:35:26;;;;;;;;;;;18.90;64.80;;;;;;7313780;19;9529;-65
2023/12/20 08:37:55;;;;;;;;;;;19.00;64.80;;;;;;7313147;19;9196;-65
2023/12/20 08:40:26;;;;;;;;;;;19.00;64.70;;;;;;7313197;19;9748;-64
2023/12/20 08:42:55;;;;;;;;;;;19.10;64.60;;;;;;7312998;19;9545;-65
2023/12/20 08:45:24;;;;;;;;;;;19.20;64.50;;;;;;7312107;19;10824;-65
2023/12/20 08:47:54;;;;;;;;;;;19.20;64.50;;;;;;7313487;19;9192;-65
2023/12/20 08:50:23;;;;;;;;;;;19.40;64.50;;;;;;7314255;19;9459;-65
2023/12/20 08:52:53;;;;;;;;;;;19.40;64.40;;;;;;7315296;19;9275;-65
2023/12/20 08:55:22;;;;;;;;;;;19.50;64.20;;;;;;7314866;19;9528;-65
2023/12/20 08:57:54;;;;;;;;;;;19.60;64.20;;;;;;7312019;19;9746;-66
2023/12/20 09:00:24;;;;;;;;;;;19.60;64.10;;;;;;7314431;19;9456;-65
2023/12/20 09:02:53;;;;;;;;;;;19.60;63.90;;;;;;7313312;19;9476;-62
2023/12/20 09:05:23;;;;;;;;;;;19.70;63.90;;;;;;7316093;19;9467;-62
2023/12/20 09:07:51;;;;;;;;;;;19.70;63.80;;;;;;7316397;19;9594;-63
2023/12/20 09:10:22;;;;;;;;;;;19.70;63.70;;;;;;7315017;19;11845;-63
2023/12/20 09:12:56;;;;;;;;;;;19.70;63.60;;;;;;7314204;19;9517;-63
2023/12/20 09:15:26;;;;;;;;;;;19.70;63.60;;;;;;7316076;19;9225;-63
2023/12/20 09:17:55;;;;;;;;;;;19.70;63.70;;;;;;7316527;19;9473;-63
2023/12/20 09:20:25;;;;;;;;;;;19.70;63.30;;;;;;7314747;19;9469;-63
2023/12/20 09:22:54;;;;;;;;;;;19.60;63.40;;;;;;7314576;19;9269;-63
2023/12/20 09:25:23;;;;;;;;;;;19.60;63.20;;;;;;7316646;19;9459;-63
2023/12/20 09:27:55;;;;;;;;;;;19.60;63.30;;;;;;7310686;19;9539;-63
2023/12/20 09:30:24;;;;;;;;;;;19.60;63.20;;;;;;7313272;19;9722;-63
2023/12/20 09:32:53;;;;;;;;;;;19.50;63.20;;;;;;7312098;19;9687;-65
2023/12/20 09:35:22;;;;;;;;;;;19.50;63.20;;;;;;7317138;19;9457;-63
2023/12/20 09:37:51;;;;;;;;;;;19.50;63.30;;;;;;7314009;19;9678;-62
2023/12/20 09:40:22;;;;;;;;;;;19.40;63.20;;;;;;7317789;19;9550;-63
2023/12/20 09:42:58;;;;;;;;;;;19.40;63.30;;;;;;7322104;19;9250;-63
2023/12/20 09:45:27;;;;;;;;;;;19.40;63.40;;;;;;7322100;19;9445;-63
2023/12/20 09:48:20;;;;;;;;;;;19.30;63.40;;;;;;7316397;19;9571;-63
2023/12/20 09:50:49;;;;;;;;;;;19.30;63.40;;;;;;7321858;19;9630;-63
2023/12/20 09:53:20;;;;;;;;;;;19.30;63.50;;;;;;7320559;19;9519;-63
2023/12/20 09:55:50;;;;;;;;;;;19.20;63.50;;;;;;7321511;19;9474;-63
2023/12/20 09:58:21;;;;;;;;;;;19.20;63.50;;;;;;7318607;19;9626;-63
2023/12/20 10:00:51;;;;;;;;;;;19.20;63.60;;;;;;7321159;19;9481;-63
2023/12/20 10:03:27;;;;;;;;;;;19.20;64.30;;;;;;7318581;19;9379;-63
2023/12/20 10:06:00;;;;;;;;;;;19.10;63.80;;;;;;7320528;19;9429;-63
2023/12/20 10:08:30;;;;;;;;;;;19.10;63.70;;;;;;7319140;19;9517;-63
2023/12/20 10:11:02;;;;;;;;;;;19.10;63.80;;;;;;7318784;19;9639;-63
2023/12/20 10:13:53;;;;;;;;;;;19.10;63.80;;;;;;7318770;19;9467;-63
2023/12/20 10:16:27;;;;;;;;;;;19.00;63.80;;;;;;7320583;19;9352;-63
2023/12/20 10:18:57;;;;;;;;;;;19.00;63.90;;;;;;7317810;19;9662;-63
2023/12/20 10:21:26;;;;;;;;;;;19.00;64.00;;;;;;7319228;19;9653;-63
2023/12/20 10:23:57;;;;;;;;;;;19.00;63.90;;;;;;7318526;19;9477;-63
2023/12/20 10:26:27;;;;;;;;;;;19.00;64.00;;;;;;7321180;19;9487;-63
2023/12/20 10:29:04;;;;;;;;;;;19.00;63.90;;;;;;7318125;19;9349;-63
2023/12/20 10:31:35;;;;;;;;;;;18.90;64.00;;;;;;7320058;19;9072;-63
2023/12/20 10:34:05;;;;;;;;;;;18.90;63.90;;;;;;7318792;19;10403;-63
2023/12/20 10:36:55;;;;;;;;;;;18.90;64.00;;;;;;7318768;19;10130;-63
2023/12/20 10:39:25;;;;;;;;;;;18.90;64.00;;;;;;7317205;19;9380;-63
2023/12/20 10:41:54;;;;;;;;;;;18.90;64.10;;;;;;7319346;19;9008;-63
2023/12/20 10:44:26;;;;;;;;;;;18.90;64.20;;;;;;7316982;19;9230;-63
2023/12/20 10:46:58;;;;;;;;;;;18.90;64.10;;;;;;7314768;19;10414;-63
2023/12/20 10:49:28;;;;;;;;;;;18.90;64.00;;;;;;7316738;19;9238;-63
2023/12/20 10:52:02;;;;;;;;;;;18.90;64.10;;;;;;7320074;19;10743;-63
2023/12/20 10:54:31;;;;;;;;;;;18.90;64.10;;;;;;7317430;19;9557;-63
2023/12/20 10:57:02;;;;;;;;;;;18.90;64.00;;;;;;7317247;19;9491;-63
2023/12/20 10:59:36;;;;;;;;;;;18.90;64.00;;;;;;7313144;19;9465;-74
2023/12/20 11:02:07;;;;;;;;;;;18.90;63.90;;;;;;7315039;19;10370;-72
2023/12/20 11:04:47;;;;;;;;;;;18.90;64.00;;;;;;7312150;19;9477;-61
2023/12/20 11:07:25;;;;;;;;;;;18.90;64.00;;;;;;7319416;19;9447;-61
2023/12/20 11:10:02;;;;;;;;;;;18.90;64.10;;;;;;7319120;19;9727;-60
2023/12/20 11:12:42;;;;;;;;;;;19.00;64.20;;;;;;7316782;19;10096;-60
2023/12/20 11:15:15;;;;;;;;;;;19.00;64.20;;;;;;7315976;19;9612;-60
2023/12/20 11:17:47;;;;;;;;;;;19.00;64.20;;;;;;7317105;19;9347;-61
2023/12/20 11:20:16;;;;;;;;;;;19.00;64.20;;;;;;7317029;19;9517;-60
2023/12/20 11:22:56;;;;;;;;;;;19.00;64.20;;;;;;7316892;19;9681;-61
2023/12/20 11:25:26;;;;;;;;;;;19.00;64.80;;;;;;7318747;19;9316;-61
2023/12/20 11:28:12;;;;;;;;;;;19.10;64.40;;;;;;7316617;19;9180;-61
2023/12/20 11:31:05;;;;;;;;;;;19.10;64.30;;;;;;7315834;19;9961;-61
2023/12/20 11:33:40;;;;;;;;;;;19.10;64.30;;;;;;7316774;19;9464;-61
2023/12/20 11:36:17;;;;;;;;;;;19.10;64.30;;;;;;7318090;19;9473;-61
2023/12/20 11:38:59;;;;;;;;;;;19.00;64.20;;;;;;7316061;19;9611;-61
2023/12/20 11:41:29;;;;;;;;;;;19.00;64.30;;;;;;7318700;19;9628;-60
2023/12/20 11:44:00;;;;;;;;;;;19.00;64.20;;;;;;7315658;19;9168;-61
2023/12/20 11:46:33;;;;;;;;;;;19.00;64.20;;;;;;7318969;19;9430;-60
2023/12/20 11:49:03;;;;;;;;;;;19.00;64.90;;;;;;7314447;19;9537;-61
2023/12/20 11:51:32;;;;;;;;;;;19.00;64.30;;;;;;7315966;19;9202;-60
2023/12/20 11:54:01;;;;;;;;;;;19.10;64.40;;;;;;7318336;19;9618;-61
2023/12/20 11:56:31;;;;;;;;;;;19.00;64.40;;;;;;7317515;19;9464;-61
2023/12/20 11:59:00;;;;;;;;;;;19.10;64.40;;;;;;7313433;19;9761;-61
2023/12/20 12:01:31;;;;;;;;;;;19.10;64.40;;;;;;7317884;19;10323;-60
2023/12/20 12:04:05;;;;;;;;;;;19.10;64.40;;;;;;7315945;19;9277;-61
2023/12/20 12:06:35;;;;;;;;;;;19.20;64.40;;;;;;7312580;19;9349;-61
2023/12/20 12:09:04;;;;;;;;;;;19.20;64.40;;;;;;7317050;19;9734;-63
2023/12/20 12:11:33;;;;;;;;;;;19.20;64.30;;;;;;7317459;19;9482;-66
2023/12/20 12:14:03;;;;;;;;;;;19.20;64.40;;;;;;7314230;19;9653;-63
2023/12/20 12:16:35;;;;;;;;;;;19.20;64.40;;;;;;7313376;19;9507;-62
2023/12/20 12:19:04;;;;;;;;;;;19.20;64.40;;;;;;7315905;19;9477;-61
2023/12/20 12:21:33;;;;;;;;;;;19.20;64.40;;;;;;7316889;19;9464;-62
2023/12/20 12:24:10;;;;;;;;;;;19.20;64.50;;;;;;7309822;19;9482;-62
2023/12/20 12:26:39;;;;;;;;;;;19.20;64.50;;;;;;7307885;19;9538;-62
2023/12/20 12:29:10;;;;;;;;;;;19.20;64.60;;;;;;7312699;19;9524;-61
2023/12/20 12:31:42;;;;;;;;;;;19.10;64.50;;;;;;7314006;19;9436;-62
2023/12/20 12:34:31;;;;;;;;;;;19.10;64.50;;;;;;7315968;19;9370;-62
2023/12/20 12:37:00;;;;;;;;;;;19.10;64.50;;;;;;7316632;19;9407;-62
2023/12/20 12:39:50;;;;;;;;;;;19.10;64.50;;;;;;7315246;19;9277;-62
2023/12/20 12:42:20;;;;;;;;;;;19.00;64.60;;;;;;7316424;19;10614;-62
2023/12/20 12:44:49;;;;;;;;;;;19.00;64.60;;;;;;7317178;19;9382;-62
2023/12/20 12:47:22;;;;;;;;;;;19.00;64.60;;;;;;7317099;19;9411;-62
2023/12/20 12:49:54;;;;;;;;;;;19.00;64.60;;;;;;7315509;19;9390;-62
2023/12/20 12:52:23;;;;;;;;;;;19.00;65.30;;;;;;7316788;19;10283;-62
2023/12/20 12:54:52;;;;;;;;;;;18.90;64.60;;;;;;7314673;19;9284;-62
2023/12/20 12:57:21;;;;;;;;;;;18.90;64.70;;;;;;7316774;19;10374;-62
2023/12/20 12:59:51;;;;;;;;;;;18.90;64.60;;;;;;7316488;19;9510;-62
2023/12/20 13:02:22;;;;;;;;;;;18.80;64.60;;;;;;7317230;19;9314;-62
2023/12/20 13:04:49;;;;;;;;;;;18.80;64.60;;;;;;7315206;19;9457;-62
2023/12/20 13:07:18;;;;;;;;;;;18.80;64.60;;;;;;7317605;19;10374;-62
2023/12/20 13:09:47;;;;;;;;;;;18.80;64.60;;;;;;7313036;19;9170;-62
2023/12/20 13:12:36;;;;;;;;;;;18.80;64.60;;;;;;7314566;19;10006;-62
2023/12/20 13:15:06;;;;;;;;;;;18.80;64.60;;;;;;7317617;19;9448;-62
2023/12/20 13:17:38;;;;;;;;;;;18.80;64.60;;;;;;7315211;19;9657;-62
2023/12/20 13:20:08;;;;;;;;;;;18.80;64.50;;;;;;7315944;19;10709;-62
2023/12/20 13:22:37;;;;;;;;;;;18.80;64.60;;;;;;7315860;19;9481;-62
2023/12/20 13:25:07;;;;;;;;;;;18.80;64.50;;;;;;7315971;19;9453;-62
2023/12/20 13:27:37;;;;;;;;;;;18.80;64.30;;;;;;7314886;19;9458;-62
2023/12/20 13:30:07;;;;;;;;;;;18.80;64.30;;;;;;7313512;19;9489;-62
2023/12/20 13:32:59;;;;;;;;;;;18.90;64.20;;;;;;7314254;19;9575;-62
2023/12/20 13:35:48;;;;;;;;;;;19.00;64.30;;;;;;7314014;19;9514;-62
2023/12/20 13:38:17;;;;;;;;;;;19.00;64.20;;;;;;7316087;19;9473;-62
2023/12/20 13:40:47;;;;;;;;;;;19.10;64.20;;;;;;7313092;19;9604;-62
2023/12/20 13:43:20;;;;;;;;;;;19.10;64.10;;;;;;7313187;19;9146;-62
2023/12/20 13:45:49;;;;;;;;;;;19.20;64.00;;;;;;7314502;19;9747;-62
2023/12/20 13:48:21;;;;;;;;;;;19.30;64.00;;;;;;7313867;19;9229;-62
2023/12/20 13:50:50;;;;;;;;;;;19.30;63.90;;;;;;7315108;19;9628;-62
2023/12/20 13:53:19;;;;;;;;;;;19.40;63.90;;;;;;7312804;19;9635;-62
2023/12/20 13:55:48;;;;;;;;;;;19.40;63.80;;;;;;7308738;19;9583;-62
2023/12/20 13:58:17;;;;;;;;;;;19.50;63.80;;;;;;7313229;19;9181;-62
2023/12/20 14:00:45;;;;;;;;;;;19.60;63.80;;;;;;7314367;19;9395;-62
2023/12/20 14:03:15;;;;;;;;;;;19.60;63.70;;;;;;7312145;19;9231;-62
2023/12/20 14:05:47;;;;;;;;;;;19.60;63.60;;;;;;7313931;19;9485;-62
2023/12/20 14:08:16;;;;;;;;;;;19.70;63.50;;;;;;7311182;19;9502;-62
2023/12/20 14:10:45;;;;;;;;;;;19.70;63.50;;;;;;7313446;19;9177;-62
2023/12/20 14:13:13;;;;;;;;;;;19.70;63.40;;;;;;7312948;19;10596;-62
2023/12/20 14:15:42;;;;;;;;;;;19.70;63.40;;;;;;7311585;19;9526;-62
2023/12/20 14:18:14;;;;;;;;;;;19.70;63.30;;;;;;7313053;19;10632;-62
2023/12/20 14:20:47;;;;;;;;;;;19.70;63.30;;;;;;7311134;19;9464;-62
2023/12/20 14:23:17;;;;;;;;;;;19.70;63.20;;;;;;7319621;19;9601;-62
2023/12/20 14:25:46;;;;;;;;;;;19.70;63.70;;;;;;7319631;19;9473;-62
2023/12/20 14:28:16;;;;;;;;;;;19.70;63.20;;;;;;7319818;19;9178;-61
2023/12/20 14:30:45;;;;;;;;;;;19.70;63.20;;;;;;7317621;19;10612;-62
2023/12/20 14:33:14;;;;;;;;;;;19.60;63.10;;;;;;7320022;19;9820;-62
2023/12/20 14:35:44;;;;;;;;;;;19.60;63.10;;;;;;7319095;19;9675;-62
2023/12/20 14:38:16;;;;;;;;;;;19.60;63.00;;;;;;7319155;19;10693;-62
2023/12/20 14:40:44;;;;;;;;;;;19.60;63.10;;;;;;7318054;19;10845;-62
2023/12/20 14:43:13;;;;;;;;;;;19.50;63.10;;;;;;7319425;19;9268;-62
2023/12/20 14:45:42;;;;;;;;;;;19.50;63.20;;;;;;7319134;19;9617;-62
2023/12/20 14:48:12;;;;;;;;;;;19.50;63.20;;;;;;7318959;19;9565;-62
2023/12/20 14:50:41;;;;;;;;;;;19.40;63.20;;;;;;7320284;19;9438;-62
2023/12/20 14:53:16;;;;;;;;;;;19.40;63.20;;;;;;7316693;19;9237;-62